createdAt,value
2019-04-07T00:01:58.328Z,9.40
2019-04-07T00:04:28.114Z,9.40
2019-04-07T00:06:57.766Z,9.40
2019-04-07T00:09:27.635Z,9.40
2019-04-07T00:11:57.165Z,9.40
2019-04-07T00:14:27.206Z,9.60
2019-04-07T00:16:56.946Z,9.50
2019-04-07T00:19:27.072Z,9.40
2019-04-07T00:21:56.761Z,9.50
2019-04-07T00:24:26.188Z,9.50
2019-04-07T00:26:55.802Z,9.80
2019-04-07T00:29:25.258Z,9.90
2019-04-07T00:31:54.663Z,9.80
2019-04-07T00:34:24.730Z,9.80
2019-04-07T00:36:54.202Z,9.80
2019-04-07T00:39:23.601Z,9.80
2019-04-07T00:41:53.033Z,9.80
2019-04-07T00:44:22.579Z,9.80
2019-04-07T00:46:52.571Z,9.80
2019-04-07T00:49:22.125Z,9.70
2019-04-07T00:51:52.973Z,9.60
2019-04-07T00:54:22.695Z,9.50
2019-04-07T00:56:52.224Z,9.60
2019-04-07T00:59:21.744Z,9.60
2019-04-07T01:01:51.442Z,9.60
2019-04-07T01:04:21.112Z,9.50
2019-04-07T01:06:50.676Z,9.20
2019-04-07T01:09:20.059Z,9.00
2019-04-07T01:11:49.601Z,8.80
2019-04-07T01:14:19.069Z,8.60
2019-04-07T01:16:48.534Z,8.60
2019-04-07T01:19:18.855Z,8.70
2019-04-07T01:21:48.552Z,8.60
2019-04-07T01:24:18.014Z,8.50
2019-04-07T01:26:48.141Z,8.50
2019-04-07T01:29:18.380Z,8.50
2019-04-07T01:31:49.452Z,8.40
2019-04-07T01:34:19.642Z,8.40
2019-04-07T01:36:49.252Z,8.50
2019-04-07T01:39:18.665Z,8.60
2019-04-07T01:41:56.233Z,8.70
2019-04-07T01:44:27.660Z,8.50
2019-04-07T01:47:02.541Z,8.30
2019-04-07T01:49:45.567Z,8.30
2019-04-07T01:52:22.703Z,8.20
2019-04-07T01:54:53.843Z,8.10
2019-04-07T01:57:43.025Z,8.10
2019-04-07T02:00:14.333Z,8.10
2019-04-07T02:03:00.214Z,8.20
2019-04-07T02:05:31.245Z,8.00
2019-04-07T02:08:05.520Z,8.20
2019-04-07T02:10:39.572Z,8.20
2019-04-07T02:13:11.047Z,8.00
2019-04-07T02:15:45.044Z,8.00
2019-04-07T02:18:16.375Z,8.00
2019-04-07T02:21:04.651Z,8.20
2019-04-07T02:23:52.911Z,8.00
2019-04-07T02:26:26.846Z,7.80
2019-04-07T02:29:14.338Z,7.50
2019-04-07T02:32:02.049Z,7.60
2019-04-07T02:34:36.237Z,7.60
2019-04-07T02:37:13.992Z,7.60
2019-04-07T02:39:51.106Z,7.50
2019-04-07T02:42:25.367Z,7.40
2019-04-07T02:44:57.357Z,7.30
2019-04-07T02:47:35.256Z,7.60
2019-04-07T02:50:12.770Z,7.90
2019-04-07T02:52:43.858Z,8.10
2019-04-07T02:55:21.850Z,8.10
2019-04-07T02:57:54.138Z,8.20
2019-04-07T03:00:25.530Z,8.40
2019-04-07T03:03:03.330Z,8.60
2019-04-07T03:05:37.841Z,8.70
2019-04-07T03:08:10.193Z,8.40
2019-04-07T03:10:47.381Z,8.20
2019-04-07T03:13:21.520Z,8.00
2019-04-07T03:15:52.829Z,8.10
2019-04-07T03:18:27.115Z,8.00
2019-04-07T03:21:04.140Z,7.90
2019-04-07T03:23:36.294Z,7.90
2019-04-07T03:26:07.957Z,7.90
2019-04-07T03:28:39.984Z,7.90
2019-04-07T03:31:22.473Z,7.90
2019-04-07T03:34:00.815Z,8.00
2019-04-07T03:37:09.585Z,7.80
2019-04-07T03:39:28.131Z,7.80
2019-04-07T03:42:02.950Z,7.90
2019-04-07T03:44:46.981Z,7.90
2019-04-07T03:47:30.190Z,7.70
2019-04-07T03:50:10.360Z,7.90
2019-04-07T03:52:58.487Z,8.00
2019-04-07T03:56:00.724Z,8.20
2019-04-07T04:01:40.179Z,8.00
2019-04-07T04:04:11.858Z,8.30
2019-04-07T04:07:17.864Z,8.30
2019-04-07T04:09:40.570Z,8.20
2019-04-07T04:12:29.939Z,8.20
2019-04-07T04:15:07.203Z,8.10
2019-04-07T04:17:37.053Z,7.90
2019-04-07T04:20:08.378Z,8.00
2019-04-07T04:22:39.357Z,8.20
2019-04-07T04:25:10.531Z,8.50
2019-04-07T04:27:40.207Z,8.60
2019-04-07T04:30:14.354Z,8.80
2019-04-07T04:32:43.861Z,8.80
2019-04-07T04:35:13.557Z,8.90
2019-04-07T04:37:48.746Z,8.90
2019-04-07T04:40:14.386Z,8.90
2019-04-07T04:42:44.382Z,8.90
2019-04-07T04:45:13.946Z,8.80
2019-04-07T04:47:43.404Z,8.70
2019-04-07T04:50:13.216Z,8.60
2019-04-07T04:52:42.861Z,8.50
2019-04-07T04:55:13.269Z,8.30
2019-04-07T04:57:42.867Z,8.20
2019-04-07T05:00:13.509Z,8.10
2019-04-07T05:02:44.186Z,8.10
2019-04-07T05:05:14.071Z,8.20
2019-04-07T05:07:55.224Z,8.20
2019-04-07T05:10:15.016Z,8.30
2019-04-07T05:12:44.597Z,8.60
2019-04-07T05:15:14.746Z,8.60
2019-04-07T05:17:44.570Z,8.70
2019-04-07T05:20:14.292Z,8.80
2019-04-07T05:22:44.350Z,8.90
2019-04-07T05:25:14.082Z,8.80
2019-04-07T05:27:43.671Z,8.80
2019-04-07T05:30:13.105Z,8.80
2019-04-07T05:32:43.131Z,8.90
2019-04-07T05:35:13.210Z,9.00
2019-04-07T05:37:43.357Z,9.10
2019-04-07T05:40:13.308Z,9.30
2019-04-07T05:42:43.455Z,9.40
2019-04-07T05:45:13.078Z,9.50
2019-04-07T05:47:47.288Z,9.50
2019-04-07T05:50:14.439Z,9.60
2019-04-07T05:52:44.020Z,9.60
2019-04-07T05:55:14.241Z,9.60
2019-04-07T05:57:45.319Z,9.60
2019-04-07T06:00:16.677Z,9.70
2019-04-07T06:02:46.943Z,9.80
2019-04-07T06:05:18.397Z,9.80
2019-04-07T06:07:48.119Z,9.80
2019-04-07T06:10:22.870Z,9.80
2019-04-07T06:12:51.759Z,9.90
2019-04-07T06:15:22.295Z,10.00
2019-04-07T06:17:52.265Z,10.20
2019-04-07T06:20:22.490Z,10.40
2019-04-07T06:22:53.652Z,10.50
2019-04-07T06:25:25.078Z,10.60
2019-04-07T06:27:54.687Z,10.70
2019-04-07T06:30:28.072Z,10.70
2019-04-07T06:32:56.917Z,10.90
2019-04-07T06:35:26.992Z,11.00
2019-04-07T06:37:59.372Z,11.00
2019-04-07T06:40:28.470Z,11.00
2019-04-07T06:42:58.108Z,11.20
2019-04-07T06:45:29.398Z,11.30
2019-04-07T06:48:02.554Z,11.30
2019-04-07T06:50:49.480Z,11.30
2019-04-07T06:53:18.357Z,11.40
2019-04-07T06:55:51.366Z,11.60
2019-04-07T06:58:28.464Z,11.80
2019-04-07T07:01:17.610Z,12.10
2019-04-07T07:04:09.438Z,12.20
2019-04-07T07:06:54.552Z,12.40
2019-04-07T07:09:28.889Z,12.50
2019-04-07T07:12:00.636Z,12.70
2019-04-07T07:14:40.504Z,12.80
2019-04-07T07:17:21.570Z,13.00
2019-04-07T07:20:12.384Z,12.90
2019-04-07T07:22:46.747Z,13.10
2019-04-07T07:25:15.626Z,13.20
2019-04-07T07:27:47.729Z,13.30
2019-04-07T07:30:18.343Z,13.50
2019-04-07T07:32:48.613Z,13.50
2019-04-07T07:35:18.176Z,13.60
2019-04-07T07:37:49.963Z,13.60
2019-04-07T07:40:21.225Z,13.50
2019-04-07T07:42:51.121Z,13.60
2019-04-07T07:45:20.930Z,13.80
2019-04-07T07:47:53.220Z,14.20
2019-04-07T07:50:21.566Z,14.30
2019-04-07T07:52:53.351Z,14.40
2019-04-07T07:55:22.477Z,14.30
2019-04-07T07:57:56.582Z,14.40
2019-04-07T08:00:23.042Z,14.40
2019-04-07T08:02:53.425Z,14.50
2019-04-07T08:05:23.866Z,14.70
2019-04-07T08:08:00.620Z,14.60
2019-04-07T08:10:30.249Z,14.60
2019-04-07T08:13:00.644Z,15.00
2019-04-07T08:15:32.648Z,15.20
2019-04-07T08:18:04.777Z,15.40
2019-04-07T08:20:33.909Z,15.60
2019-04-07T08:23:03.720Z,15.70
2019-04-07T08:25:33.578Z,15.60
2019-04-07T08:28:04.593Z,15.40
2019-04-07T08:30:34.306Z,15.40
2019-04-07T08:33:03.853Z,15.60
2019-04-07T08:35:37.770Z,15.80
2019-04-07T08:38:05.625Z,16.10
2019-04-07T08:40:37.475Z,16.30
2019-04-07T08:43:07.160Z,16.50
2019-04-07T08:45:38.309Z,16.60
2019-04-07T08:48:08.973Z,16.80
2019-04-07T08:50:40.952Z,17.00
2019-04-07T08:53:12.938Z,17.10
2019-04-07T08:55:41.743Z,17.20
2019-04-07T08:58:22.741Z,17.10
2019-04-07T09:00:53.595Z,17.30
2019-04-07T09:03:23.170Z,17.70
2019-04-07T09:05:56.531Z,17.70
2019-04-07T09:08:24.082Z,17.70
2019-04-07T09:10:59.325Z,17.60
2019-04-07T09:13:31.638Z,17.70
2019-04-07T09:16:04.702Z,17.70
2019-04-07T09:19:00.034Z,18.10
2019-04-07T09:21:37.239Z,17.40
2019-04-07T09:24:10.089Z,17.50
2019-04-07T09:26:47.131Z,17.90
2019-04-07T09:29:35.304Z,18.00
2019-04-07T09:32:22.543Z,17.80
2019-04-07T09:34:59.279Z,18.10
2019-04-07T09:37:31.084Z,18.10
2019-04-07T09:40:04.416Z,18.00
2019-04-07T09:42:35.631Z,18.20
2019-04-07T09:45:10.830Z,18.30
2019-04-07T09:47:41.380Z,18.30
2019-04-07T09:50:26.897Z,18.60
2019-04-07T09:53:09.923Z,18.40
2019-04-07T09:55:50.525Z,18.00
2019-04-07T09:58:24.991Z,18.10
2019-04-07T10:00:57.664Z,18.10
2019-04-07T10:03:32.037Z,18.20
2019-04-07T10:06:04.693Z,18.40
2019-04-07T10:08:36.320Z,18.50
2019-04-07T10:11:19.733Z,18.40
2019-04-07T10:13:51.161Z,18.50
2019-04-07T10:16:22.686Z,18.90
2019-04-07T10:19:00.668Z,18.80
2019-04-07T10:21:48.484Z,18.80
2019-04-07T10:24:25.861Z,19.00
2019-04-07T10:26:57.178Z,19.10
2019-04-07T10:29:31.873Z,19.20
2019-04-07T10:32:09.203Z,19.30
2019-04-07T10:34:40.773Z,19.50
2019-04-07T10:37:24.405Z,19.40
2019-04-07T10:40:16.806Z,19.40
2019-04-07T10:42:49.155Z,19.80
2019-04-07T10:45:20.710Z,19.80
2019-04-07T10:48:09.158Z,19.80
2019-04-07T10:50:59.115Z,19.70
2019-04-07T10:53:37.008Z,20.00
2019-04-07T10:56:08.873Z,19.80
2019-04-07T10:58:56.884Z,19.80
2019-04-07T11:01:27.966Z,20.20
2019-04-07T11:03:59.431Z,20.00
2019-04-07T11:06:30.625Z,20.10
2019-04-07T11:09:01.753Z,20.00
2019-04-07T11:11:49.173Z,20.10
2019-04-07T11:14:26.938Z,20.30
2019-04-07T11:17:08.075Z,20.60
2019-04-07T11:22:44.229Z,20.70
2019-04-07T11:25:16.438Z,20.60
2019-04-07T11:27:51.080Z,20.60
2019-04-07T11:30:28.874Z,20.90
2019-04-07T11:33:00.825Z,21.00
2019-04-07T11:38:23.470Z,21.50
2019-04-07T11:41:01.495Z,21.60
2019-04-07T11:43:48.926Z,21.20
2019-04-07T11:46:26.309Z,21.00
2019-04-07T11:49:00.838Z,21.20
2019-04-07T11:51:32.447Z,21.10
2019-04-07T11:54:06.649Z,21.50
2019-04-07T11:56:38.312Z,22.00
2019-04-07T11:59:12.108Z,22.10
2019-04-07T12:01:46.078Z,21.90
2019-04-07T12:04:28.055Z,21.90
2019-04-07T12:07:18.862Z,21.70
2019-04-07T12:09:47.747Z,22.10
2019-04-07T12:12:18.915Z,22.10
2019-04-07T12:14:52.474Z,21.80
2019-04-07T12:17:42.047Z,21.70
2019-04-07T12:20:21.349Z,21.60
2019-04-07T12:22:52.826Z,21.70
2019-04-07T12:25:37.265Z,21.80
2019-04-07T12:28:23.506Z,21.90
2019-04-07T12:31:03.953Z,21.70
2019-04-07T12:33:39.326Z,21.70
2019-04-07T12:36:12.975Z,22.20
2019-04-07T12:38:51.036Z,22.10
2019-04-07T12:41:34.714Z,21.90
2019-04-07T12:44:06.213Z,22.00
2019-04-07T12:46:37.713Z,21.60
2019-04-07T12:49:09.688Z,21.50
2019-04-07T12:51:40.932Z,21.60
2019-04-07T12:54:12.091Z,21.50
2019-04-07T12:56:52.362Z,22.00
2019-04-07T12:59:39.680Z,21.90
2019-04-07T13:02:29.160Z,22.20
2019-04-07T13:05:05.284Z,22.00
2019-04-07T13:07:37.591Z,22.40
2019-04-07T13:10:26.854Z,22.80
2019-04-07T13:13:01.598Z,22.70
2019-04-07T13:15:33.567Z,22.70
2019-04-07T13:18:08.616Z,22.60
2019-04-07T13:20:40.770Z,22.40
2019-04-07T13:23:21.139Z,22.70
2019-04-07T13:26:02.114Z,22.60
2019-04-07T13:28:33.419Z,22.30
2019-04-07T13:31:16.590Z,22.20
2019-04-07T13:33:51.124Z,22.30
2019-04-07T13:36:37.777Z,22.70
2019-04-07T13:39:10.211Z,22.80
2019-04-07T13:41:56.302Z,22.40
2019-04-07T13:44:41.657Z,22.30
2019-04-07T13:47:13.037Z,22.10
2019-04-07T13:49:55.403Z,22.10
2019-04-07T13:52:34.919Z,21.40
2019-04-07T13:55:25.043Z,21.70
2019-04-07T13:57:59.491Z,21.80
2019-04-07T14:00:48.223Z,21.90
2019-04-07T14:03:25.551Z,21.60
2019-04-07T14:05:56.842Z,22.00
2019-04-07T14:08:29.939Z,22.00
2019-04-07T14:11:01.440Z,22.20
2019-04-07T14:13:51.247Z,22.00
2019-04-07T14:16:22.409Z,21.50
2019-04-07T14:18:54.540Z,21.30
2019-04-07T14:21:26.344Z,21.30
2019-04-07T14:23:58.169Z,21.50
2019-04-07T14:26:46.697Z,21.70
2019-04-07T14:29:18.508Z,22.00
2019-04-07T14:32:05.630Z,21.90
2019-04-07T14:34:53.207Z,21.50
2019-04-07T14:37:24.250Z,21.40
2019-04-07T14:40:11.893Z,21.70
2019-04-07T14:42:44.447Z,21.10
2019-04-07T14:45:28.338Z,20.80
2019-04-07T14:48:02.171Z,20.70
2019-04-07T14:50:33.483Z,20.50
2019-04-07T14:53:10.994Z,20.50
2019-04-07T14:55:43.102Z,20.40
2019-04-07T14:58:18.958Z,20.70
2019-04-07T15:00:50.895Z,20.70
2019-04-07T15:03:21.333Z,20.80
2019-04-07T15:05:55.145Z,20.70
2019-04-07T15:08:55.243Z,20.40
2019-04-07T15:11:32.399Z,20.30
2019-04-07T15:14:02.733Z,20.40
2019-04-07T15:16:36.738Z,20.40
2019-04-07T15:19:06.233Z,20.10
2019-04-07T15:21:36.298Z,20.10
2019-04-07T15:24:07.503Z,19.70
2019-04-07T15:26:40.049Z,19.50
2019-04-07T15:29:10.811Z,19.50
2019-04-07T15:31:40.587Z,19.40
2019-04-07T15:34:11.933Z,19.40
2019-04-07T15:36:41.501Z,19.40
2019-04-07T15:39:11.064Z,19.30
2019-04-07T15:41:42.488Z,19.10
2019-04-07T15:44:14.059Z,18.90
2019-04-07T15:46:43.705Z,18.80
2019-04-07T15:49:13.352Z,18.60
2019-04-07T15:51:43.627Z,18.30
2019-04-07T15:54:13.510Z,18.20
2019-04-07T15:56:45.429Z,18.00
2019-04-07T15:59:17.930Z,17.90
2019-04-07T16:01:47.261Z,17.80
2019-04-07T16:04:16.797Z,17.70
2019-04-07T16:06:48.726Z,17.50
2019-04-07T16:09:29.627Z,17.40
2019-04-07T16:11:49.590Z,17.30
2019-04-07T16:14:21.968Z,17.20
2019-04-07T16:16:52.799Z,17.00
2019-04-07T16:19:34.901Z,16.90
2019-04-07T16:21:53.828Z,16.80
2019-04-07T16:24:23.324Z,16.80
2019-04-07T16:26:52.747Z,16.80
2019-04-07T16:29:22.342Z,16.80
2019-04-07T16:31:51.889Z,17.00
2019-04-07T16:34:22.877Z,17.00
2019-04-07T16:36:55.128Z,16.80
2019-04-07T16:39:23.441Z,16.50
2019-04-07T16:41:53.395Z,16.30
2019-04-07T16:44:23.326Z,16.20
2019-04-07T16:46:57.172Z,16.10
2019-04-07T16:49:24.680Z,16.00
2019-04-07T16:51:54.140Z,16.00
2019-04-07T16:54:24.464Z,15.90
2019-04-07T16:56:57.089Z,16.00
2019-04-07T16:59:25.381Z,15.90
2019-04-07T17:01:55.022Z,15.80
2019-04-07T17:04:25.687Z,15.60
2019-04-07T17:07:03.295Z,15.50
2019-04-07T17:09:28.237Z,15.50
2019-04-07T17:11:57.846Z,15.50
2019-04-07T17:14:31.027Z,15.40
2019-04-07T17:16:59.094Z,15.40
2019-04-07T17:19:30.176Z,15.20
2019-04-07T17:22:00.759Z,15.20
2019-04-07T17:24:30.731Z,15.10
2019-04-07T17:27:01.016Z,14.90
2019-04-07T17:29:32.152Z,14.80
2019-04-07T17:32:02.799Z,14.80
2019-04-07T17:34:33.654Z,14.80
2019-04-07T17:37:03.994Z,14.60
2019-04-07T17:39:42.183Z,14.60
2019-04-07T17:42:12.621Z,14.50
2019-04-07T17:44:47.815Z,14.30
2019-04-07T17:47:36.660Z,14.20
2019-04-07T17:50:20.982Z,14.10
2019-04-07T17:52:54.679Z,13.90
2019-04-07T17:55:27.770Z,13.80
2019-04-07T17:58:01.652Z,13.70
2019-04-07T18:00:32.895Z,13.40
2019-04-07T18:03:11.541Z,13.30
2019-04-07T18:05:45.869Z,13.10
2019-04-07T18:08:19.868Z,13.00
2019-04-07T18:10:51.724Z,12.80
2019-04-07T18:13:46.004Z,12.70
2019-04-07T18:16:25.613Z,12.60
2019-04-07T18:18:59.682Z,12.70
2019-04-07T18:21:31.416Z,12.60
2019-04-07T18:24:08.370Z,12.30
2019-04-07T18:26:44.797Z,12.30
2019-04-07T18:29:14.955Z,12.40
2019-04-07T18:32:01.979Z,12.20
2019-04-07T18:34:39.715Z,12.10
2019-04-07T18:37:11.697Z,11.90
2019-04-07T18:40:01.748Z,11.70
2019-04-07T18:42:48.998Z,11.80
2019-04-07T18:45:26.109Z,12.10
2019-04-07T18:48:08.095Z,11.90
2019-04-07T18:50:57.590Z,11.60
2019-04-07T18:53:28.907Z,11.50
2019-04-07T18:56:16.275Z,11.50
2019-04-07T18:58:50.876Z,11.50
2019-04-07T19:01:27.033Z,11.30
2019-04-07T19:04:01.066Z,11.10
2019-04-07T19:06:51.555Z,10.70
2019-04-07T19:09:33.097Z,10.50
2019-04-07T19:12:22.940Z,10.50
2019-04-07T19:15:03.781Z,10.70
2019-04-07T19:17:38.534Z,10.60
2019-04-07T19:20:12.978Z,10.30
2019-04-07T19:22:51.343Z,10.20
2019-04-07T19:25:29.139Z,10.20
2019-04-07T19:28:07.799Z,10.30
2019-04-07T19:30:46.861Z,10.20
2019-04-07T19:33:17.968Z,10.10
2019-04-07T19:35:49.794Z,10.00
2019-04-07T19:38:23.344Z,10.00
2019-04-07T19:41:06.781Z,9.90
2019-04-07T19:43:41.849Z,9.90
2019-04-07T19:46:28.167Z,9.90
2019-04-07T19:49:13.926Z,9.90
2019-04-07T19:51:49.299Z,9.90
2019-04-07T19:54:23.546Z,9.80
2019-04-07T19:57:04.768Z,9.80
2019-04-07T19:59:39.370Z,9.80
2019-04-07T20:02:15.312Z,9.70
2019-04-07T20:05:05.799Z,9.60
2019-04-07T20:07:39.801Z,9.60
2019-04-07T20:10:28.204Z,9.70
2019-04-07T20:13:00.389Z,9.70
2019-04-07T20:15:39.051Z,9.70
2019-04-07T20:18:19.160Z,9.70
2019-04-07T20:20:53.774Z,9.80
2019-04-07T20:23:41.453Z,9.60
2019-04-07T20:26:22.089Z,9.50
2019-04-07T20:28:52.089Z,9.60
2019-04-07T20:31:35.098Z,9.50
2019-04-07T20:34:12.302Z,9.50
2019-04-07T20:36:44.362Z,9.30
2019-04-07T20:39:19.284Z,9.40
2019-04-07T20:41:53.363Z,9.40
2019-04-07T20:44:39.891Z,9.30
2019-04-07T20:47:10.994Z,9.30
2019-04-07T20:49:58.854Z,9.30
2019-04-07T20:52:32.038Z,9.30
2019-04-07T20:55:09.853Z,9.30
2019-04-07T20:57:43.524Z,9.20
2019-04-07T21:00:14.841Z,9.20
2019-04-07T21:05:34.500Z,9.50
2019-04-07T21:08:17.584Z,9.40
2019-04-07T21:10:50.456Z,9.30
2019-04-07T21:13:37.771Z,9.20
2019-04-07T21:16:08.882Z,9.20
2019-04-07T21:18:46.878Z,9.20
2019-04-07T21:21:24.499Z,9.20
2019-04-07T21:24:18.195Z,9.20
2019-04-07T21:26:47.954Z,9.30
2019-04-07T21:29:34.522Z,9.30
2019-04-07T21:32:08.825Z,9.30
2019-04-07T21:34:38.604Z,9.20
2019-04-07T21:37:13.320Z,9.10
2019-04-07T21:39:42.479Z,8.80
2019-04-07T21:42:18.666Z,8.70
2019-04-07T21:44:51.807Z,8.60
2019-04-07T21:47:26.985Z,8.60
2019-04-07T21:50:10.008Z,8.60
2019-04-07T21:52:55.250Z,8.60
2019-04-07T21:55:28.757Z,8.50
2019-04-07T21:58:16.657Z,8.40
2019-04-07T22:00:51.113Z,8.50
2019-04-07T22:03:31.311Z,8.30
2019-04-07T22:06:14.532Z,8.30
2019-04-07T22:09:00.899Z,8.20
2019-04-07T22:11:30.571Z,8.30
2019-04-07T22:14:00.992Z,8.20
2019-04-07T22:16:31.873Z,8.20
2019-04-07T22:19:01.543Z,8.40
2019-04-07T22:21:31.959Z,8.60
2019-04-07T22:24:02.196Z,8.60
2019-04-07T22:26:33.477Z,8.70
2019-04-07T22:29:04.410Z,8.70
2019-04-07T22:31:51.562Z,8.60
2019-04-07T22:34:21.189Z,8.50
2019-04-07T22:36:50.618Z,8.80
2019-04-07T22:39:20.527Z,8.70
2019-04-07T22:41:50.464Z,8.60
2019-04-07T22:44:21.880Z,8.60
2019-04-07T22:46:52.334Z,8.60
2019-04-07T22:49:21.955Z,8.60
2019-04-07T22:51:53.821Z,8.70
2019-04-07T22:54:22.415Z,8.80
2019-04-07T22:56:52.278Z,8.90
2019-04-07T22:59:21.915Z,9.10
2019-04-07T23:01:51.537Z,9.10
2019-04-07T23:04:23.619Z,9.00
2019-04-07T23:06:53.013Z,9.00
2019-04-07T23:09:23.089Z,8.80
2019-04-07T23:11:52.627Z,8.80
2019-04-07T23:14:22.118Z,8.80
2019-04-07T23:16:52.026Z,8.80
2019-04-07T23:19:21.545Z,8.50
2019-04-07T23:21:51.295Z,8.40
2019-04-07T23:24:21.293Z,8.30
2019-04-07T23:26:51.030Z,8.50
2019-04-07T23:29:20.525Z,8.70
2019-04-07T23:31:50.138Z,8.70
2019-04-07T23:34:19.594Z,8.70
2019-04-07T23:36:49.844Z,8.50
2019-04-07T23:39:19.569Z,8.30
2019-04-07T23:41:49.157Z,8.40
2019-04-07T23:44:18.632Z,8.30
2019-04-07T23:46:48.816Z,8.30
2019-04-07T23:49:19.108Z,8.00
2019-04-07T23:51:48.558Z,7.30
2019-04-07T23:54:18.374Z,7.20
2019-04-07T23:56:47.895Z,7.10
2019-04-07T23:59:17.439Z,7.20
